createdAt,value
2023-05-22T00:00:19.469Z,7.05
2023-05-22T00:02:46.401Z,6.55
2023-05-22T00:05:15.098Z,7.18
2023-05-22T00:07:43.371Z,7.38
2023-05-22T00:10:11.194Z,6.97
2023-05-22T00:12:38.176Z,7.30
2023-05-22T00:15:06.149Z,7.13
2023-05-22T00:17:34.263Z,6.53
2023-05-22T00:20:07.957Z,7.05
2023-05-22T00:22:35.521Z,7.10
2023-05-22T00:25:07.210Z,7.43
2023-05-22T00:27:34.831Z,6.50
2023-05-22T00:30:02.156Z,7.22
2023-05-22T00:32:30.310Z,7.47
2023-05-22T00:34:57.197Z,7.25
2023-05-22T00:37:25.440Z,7.47
2023-05-22T00:39:52.372Z,7.25
2023-05-22T00:42:19.341Z,7.47
2023-05-22T00:44:46.248Z,7.60
2023-05-22T00:47:13.074Z,7.00
2023-05-22T00:49:41.849Z,7.32
2023-05-22T00:52:10.221Z,7.57
2023-05-22T00:54:37.763Z,7.65
2023-05-22T00:57:05.829Z,7.90
2023-05-22T00:59:32.941Z,7.72
2023-05-22T01:01:59.899Z,7.32
2023-05-22T01:04:27.147Z,7.43
2023-05-22T01:06:55.226Z,7.28
2023-05-22T01:09:22.094Z,7.70
2023-05-22T01:12:36.464Z,7.55
2023-05-22T01:15:41.253Z,7.43
2023-05-22T01:18:41.804Z,7.53
2023-05-22T01:21:15.298Z,7.65
2023-05-22T01:24:25.667Z,7.90
2023-05-22T01:27:25.771Z,8.10
2023-05-22T01:30:42.031Z,7.60
2023-05-22T01:33:13.847Z,7.70
2023-05-22T01:35:43.644Z,8.15
2023-05-22T01:38:11.845Z,7.68
2023-05-22T01:40:39.661Z,7.30
2023-05-22T01:43:08.399Z,7.70
2023-05-22T01:45:35.268Z,8.32
2023-05-22T01:48:02.609Z,7.90
2023-05-22T01:50:29.781Z,8.18
2023-05-22T01:53:11.431Z,8.25
2023-05-22T01:56:12.702Z,8.05
2023-05-22T01:59:15.163Z,7.45
2023-05-22T02:01:43.100Z,8.10
2023-05-22T02:04:11.356Z,7.70
2023-05-22T02:06:39.570Z,8.38
2023-05-22T02:09:08.471Z,8.25
2023-05-22T02:11:37.533Z,8.07
2023-05-22T02:14:04.404Z,7.78
2023-05-22T02:16:31.532Z,9.10
2023-05-22T02:19:08.322Z,8.60
2023-05-22T02:21:36.193Z,7.75
2023-05-22T02:24:03.670Z,7.38
2023-05-22T02:26:30.623Z,7.32
2023-05-22T02:28:57.664Z,7.47
2023-05-22T02:31:24.670Z,8.52
2023-05-22T02:33:51.586Z,8.57
2023-05-22T02:36:18.964Z,8.48
2023-05-22T02:38:45.897Z,8.73
2023-05-22T02:41:12.729Z,8.27
2023-05-22T02:43:39.578Z,8.63
2023-05-22T02:46:06.511Z,9.20
2023-05-22T02:48:33.422Z,8.30
2023-05-22T02:51:00.307Z,7.97
2023-05-22T02:53:27.810Z,8.02
2023-05-22T02:55:58.779Z,9.45
2023-05-22T02:58:25.763Z,8.30
2023-05-22T03:00:55.696Z,8.15
2023-05-22T03:03:25.097Z,8.35
2023-05-22T03:05:58.223Z,8.80
2023-05-22T03:08:28.318Z,8.40
2023-05-22T03:10:57.077Z,8.57
2023-05-22T03:13:24.202Z,8.90
2023-05-22T03:15:51.895Z,8.55
2023-05-22T03:18:18.872Z,8.48
2023-05-22T03:20:45.750Z,8.63
2023-05-22T03:23:13.414Z,8.20
2023-05-22T03:25:40.247Z,8.75
2023-05-22T03:28:07.164Z,8.27
2023-05-22T03:30:34.112Z,8.93
2023-05-22T03:33:01.127Z,7.93
2023-05-22T03:35:28.032Z,8.25
2023-05-22T03:37:54.941Z,8.70
2023-05-22T03:40:22.142Z,7.60
2023-05-22T03:42:49.526Z,7.63
2023-05-22T03:45:16.657Z,7.95
2023-05-22T03:47:43.541Z,7.85
2023-05-22T03:50:11.006Z,7.68
2023-05-22T03:52:38.214Z,7.82
2023-05-22T03:55:06.734Z,7.38
2023-05-22T03:57:33.600Z,8.25
2023-05-22T04:00:07.490Z,8.05
2023-05-22T04:02:34.378Z,8.55
2023-05-22T04:05:01.410Z,7.85
2023-05-22T04:07:28.290Z,8.27
2023-05-22T04:09:55.144Z,7.80
2023-05-22T04:12:22.085Z,7.43
2023-05-22T04:14:48.889Z,7.68
2023-05-22T04:17:16.027Z,7.70
2023-05-22T04:19:42.882Z,7.90
2023-05-22T04:22:09.752Z,8.13
2023-05-22T04:24:39.628Z,7.95
2023-05-22T04:27:06.986Z,7.93
2023-05-22T04:29:36.292Z,7.05
2023-05-22T04:32:03.945Z,7.60
2023-05-22T04:34:30.811Z,8.07
2023-05-22T04:36:58.063Z,8.18
2023-05-22T04:39:26.298Z,7.55
2023-05-22T04:41:53.279Z,7.22
2023-05-22T04:44:22.942Z,7.53
2023-05-22T04:46:51.295Z,8.60
2023-05-22T04:49:18.150Z,7.80
2023-05-22T04:51:45.224Z,8.05
2023-05-22T04:54:12.065Z,7.90
2023-05-22T04:56:38.938Z,8.20
2023-05-22T04:59:08.981Z,8.23
2023-05-22T05:01:37.852Z,8.35
2023-05-22T05:04:05.192Z,7.53
2023-05-22T05:06:32.037Z,7.15
2023-05-22T05:08:58.881Z,6.63
2023-05-22T05:11:26.027Z,6.93
2023-05-22T05:13:52.873Z,7.53
2023-05-22T05:16:19.794Z,7.28
2023-05-22T05:18:46.751Z,7.32
2023-05-22T05:21:13.619Z,7.60
2023-05-22T05:23:41.081Z,8.13
2023-05-22T05:26:07.935Z,7.65
2023-05-22T05:28:34.881Z,7.57
2023-05-22T05:31:01.795Z,8.43
2023-05-22T05:33:28.812Z,8.40
2023-05-22T05:35:55.805Z,7.88
2023-05-22T05:38:23.058Z,7.20
2023-05-22T05:40:49.934Z,8.25
2023-05-22T05:43:16.767Z,8.50
2023-05-22T05:45:43.962Z,7.60
2023-05-22T05:48:12.083Z,8.15
2023-05-22T05:50:39.436Z,8.63
2023-05-22T05:53:08.224Z,7.90
2023-05-22T05:55:35.158Z,8.27
2023-05-22T05:58:01.972Z,7.93
2023-05-22T06:00:28.872Z,7.40
2023-05-22T06:02:56.139Z,8.13
2023-05-22T06:05:23.581Z,8.23
2023-05-22T06:07:50.550Z,7.28
2023-05-22T06:10:17.843Z,8.40
2023-05-22T06:12:44.716Z,8.40
2023-05-22T06:15:13.638Z,7.90
2023-05-22T06:17:40.880Z,8.07
2023-05-22T06:20:09.206Z,8.27
2023-05-22T06:22:36.584Z,7.82
2023-05-22T06:25:03.700Z,7.95
2023-05-22T06:27:30.828Z,7.75
2023-05-22T06:29:57.877Z,8.38
2023-05-22T06:32:24.873Z,8.30
2023-05-22T06:34:51.790Z,8.00
2023-05-22T06:37:18.640Z,8.20
2023-05-22T06:39:45.530Z,7.80
2023-05-22T06:42:12.419Z,8.48
2023-05-22T06:44:39.260Z,8.85
2023-05-22T06:47:06.219Z,8.02
2023-05-22T06:49:33.098Z,8.10
2023-05-22T06:52:00.222Z,7.95
2023-05-22T06:54:28.737Z,8.10
2023-05-22T06:56:57.136Z,16.05
2023-05-22T06:59:23.979Z,8.15
2023-05-22T07:01:51.277Z,7.80
2023-05-22T07:04:18.190Z,7.60
2023-05-22T07:06:46.226Z,7.85
2023-05-22T07:09:13.971Z,8.05
2023-05-22T07:11:42.836Z,7.95
2023-05-22T07:14:12.411Z,8.30
2023-05-22T07:16:40.869Z,8.23
2023-05-22T07:19:09.168Z,7.95
2023-05-22T07:21:36.137Z,7.97
2023-05-22T07:24:08.112Z,7.97
2023-05-22T07:26:38.822Z,8.45
2023-05-22T07:29:05.791Z,8.50
2023-05-22T07:31:34.409Z,7.85
2023-05-22T07:34:01.443Z,8.05
2023-05-22T07:36:28.275Z,7.05
2023-05-22T07:38:55.171Z,8.57
2023-05-22T07:41:22.691Z,8.52
2023-05-22T07:43:50.099Z,8.25
2023-05-22T07:46:17.006Z,7.90
2023-05-22T07:48:43.933Z,7.72
2023-05-22T07:51:10.814Z,7.78
2023-05-22T07:53:37.751Z,8.25
2023-05-22T07:56:04.778Z,8.50
2023-05-22T07:58:32.100Z,8.82
2023-05-22T08:00:59.064Z,8.10
2023-05-22T08:03:26.227Z,8.02
2023-05-22T08:05:53.215Z,8.27
2023-05-22T08:08:20.278Z,7.85
2023-05-22T08:11:03.124Z,7.95
2023-05-22T08:13:31.323Z,8.30
2023-05-22T08:16:00.312Z,8.63
2023-05-22T08:18:29.411Z,8.60
2023-05-22T08:20:56.906Z,7.85
2023-05-22T08:23:23.749Z,8.50
2023-05-22T08:25:50.577Z,7.93
2023-05-22T08:28:18.219Z,8.13
2023-05-22T08:30:45.192Z,7.93
2023-05-22T08:33:12.242Z,8.35
2023-05-22T08:35:39.449Z,8.00
2023-05-22T08:38:06.378Z,8.32
2023-05-22T08:40:39.375Z,7.97
2023-05-22T08:43:07.064Z,8.30
2023-05-22T08:45:34.637Z,8.43
2023-05-22T08:48:06.346Z,8.27
2023-05-22T08:50:40.943Z,8.65
2023-05-22T08:53:11.334Z,7.45
2023-05-22T08:55:38.516Z,7.75
2023-05-22T08:58:06.145Z,8.05
2023-05-22T09:00:33.337Z,7.72
2023-05-22T09:03:00.469Z,8.20
2023-05-22T09:05:27.578Z,8.30
2023-05-22T09:08:02.716Z,8.85
2023-05-22T09:10:32.443Z,8.30
2023-05-22T09:13:11.261Z,7.82
2023-05-22T09:15:38.384Z,8.23
2023-05-22T09:18:06.379Z,7.95
2023-05-22T09:20:39.248Z,7.43
2023-05-22T09:23:20.254Z,8.00
2023-05-22T09:25:47.742Z,7.30
2023-05-22T09:28:14.602Z,6.88
2023-05-22T09:30:42.627Z,7.53
2023-05-22T09:33:14.226Z,7.70
2023-05-22T09:35:42.112Z,7.40
2023-05-22T09:38:12.536Z,7.75
2023-05-22T09:40:40.970Z,8.38
2023-05-22T09:43:10.171Z,7.93
2023-05-22T09:45:39.264Z,7.40
2023-05-22T09:48:08.828Z,8.00
2023-05-22T09:50:36.985Z,7.32
2023-05-22T09:53:05.279Z,8.80
2023-05-22T09:55:33.668Z,8.23
2023-05-22T09:58:04.878Z,7.60
2023-05-22T10:00:34.577Z,7.78
2023-05-22T10:03:16.519Z,8.13
2023-05-22T10:05:52.144Z,8.27
2023-05-22T10:08:36.517Z,7.78
2023-05-22T10:11:03.916Z,7.13
2023-05-22T10:13:31.354Z,7.38
2023-05-22T10:16:00.249Z,7.47
2023-05-22T10:18:27.628Z,8.02
2023-05-22T10:20:55.187Z,8.10
2023-05-22T10:23:22.601Z,8.57
2023-05-22T10:25:50.157Z,7.90
2023-05-22T10:28:29.451Z,7.05
2023-05-22T10:31:12.546Z,7.90
2023-05-22T10:33:47.949Z,7.68
2023-05-22T10:36:31.520Z,7.50
2023-05-22T10:39:33.533Z,8.27
2023-05-22T10:42:00.524Z,7.47
2023-05-22T10:44:27.465Z,7.97
2023-05-22T10:46:54.414Z,7.57
2023-05-22T10:49:26.184Z,7.22
2023-05-22T10:51:57.126Z,7.85
2023-05-22T10:54:44.389Z,8.52
2023-05-22T10:57:17.212Z,7.53
2023-05-22T10:59:47.914Z,7.53
2023-05-22T11:02:29.354Z,7.45
2023-05-22T11:05:30.811Z,7.40
2023-05-22T11:08:12.075Z,6.88
2023-05-22T11:11:00.618Z,6.70
2023-05-22T11:13:29.338Z,8.27
2023-05-22T11:15:57.704Z,7.72
2023-05-22T11:18:28.345Z,7.22
2023-05-22T11:20:55.838Z,6.85
2023-05-22T11:23:25.653Z,7.00
2023-05-22T11:25:52.749Z,7.68
2023-05-22T11:28:19.727Z,7.10
2023-05-22T11:30:47.608Z,8.35
2023-05-22T11:33:15.239Z,7.80
2023-05-22T11:35:44.590Z,8.18
2023-05-22T11:38:12.510Z,7.70
2023-05-22T11:40:39.521Z,8.63
2023-05-22T11:43:07.195Z,8.43
2023-05-22T11:45:37.771Z,8.48
2023-05-22T11:48:04.738Z,8.45
2023-05-22T11:50:41.819Z,8.55
2023-05-22T11:53:10.184Z,8.52
2023-05-22T11:55:37.016Z,8.07
2023-05-22T11:58:03.841Z,7.97
2023-05-22T12:00:31.981Z,8.02
2023-05-22T12:02:59.491Z,8.50
2023-05-22T12:05:26.653Z,7.80
2023-05-22T12:07:53.811Z,7.20
2023-05-22T12:10:20.876Z,7.82
2023-05-22T12:12:48.174Z,8.02
2023-05-22T12:15:20.368Z,7.28
2023-05-22T12:17:47.278Z,8.20
2023-05-22T12:20:14.598Z,7.57
2023-05-22T12:22:43.520Z,7.80
2023-05-22T12:25:20.612Z,7.60
2023-05-22T12:27:47.633Z,7.85
2023-05-22T12:30:15.429Z,7.88
2023-05-22T12:32:48.932Z,7.97
2023-05-22T12:35:17.505Z,7.68
2023-05-22T12:37:52.006Z,7.72
2023-05-22T12:40:19.201Z,7.60
2023-05-22T12:42:46.180Z,8.00
2023-05-22T12:45:13.831Z,7.88
2023-05-22T12:47:40.829Z,6.97
2023-05-22T12:50:08.647Z,7.20
2023-05-22T12:52:36.231Z,7.20
2023-05-22T12:55:03.238Z,7.40
2023-05-22T12:57:30.076Z,7.18
2023-05-22T12:59:57.193Z,7.07
2023-05-22T13:02:24.128Z,7.30
2023-05-22T13:04:51.021Z,7.50
2023-05-22T13:07:18.001Z,7.75
2023-05-22T13:09:44.821Z,6.97
2023-05-22T13:12:11.763Z,8.13
2023-05-22T13:14:40.298Z,8.50
2023-05-22T13:17:07.521Z,7.70
2023-05-22T13:19:34.686Z,7.47
2023-05-22T13:22:01.745Z,7.70
2023-05-22T13:24:28.561Z,7.50
2023-05-22T13:26:55.383Z,7.70
2023-05-22T13:29:22.189Z,7.35
2023-05-22T13:31:49.035Z,7.22
2023-05-22T13:34:16.088Z,7.55
2023-05-22T13:36:43.094Z,7.43
2023-05-22T13:39:09.941Z,8.05
2023-05-22T13:41:36.837Z,7.30
2023-05-22T13:44:03.698Z,7.45
2023-05-22T13:46:30.676Z,7.50
2023-05-22T13:48:57.526Z,7.63
2023-05-22T13:51:24.345Z,7.20
2023-05-22T13:53:51.170Z,7.03
2023-05-22T13:56:18.106Z,7.82
2023-05-22T13:58:45.001Z,7.05
2023-05-22T14:01:11.887Z,7.05
2023-05-22T14:03:39.165Z,7.15
2023-05-22T14:06:06.360Z,6.93
2023-05-22T14:08:33.233Z,6.38
2023-05-22T14:11:00.131Z,6.00
2023-05-22T14:13:26.999Z,6.03
2023-05-22T14:15:53.932Z,5.97
2023-05-22T14:18:21.066Z,6.75
2023-05-22T14:20:48.028Z,5.95
2023-05-22T14:23:15.684Z,6.22
2023-05-22T14:25:43.271Z,7.13
2023-05-22T14:28:14.054Z,5.90
2023-05-22T14:30:40.999Z,6.10
2023-05-22T14:33:08.743Z,6.20
2023-05-22T14:35:36.098Z,6.38
2023-05-22T14:38:03.092Z,5.93
2023-05-22T14:40:30.057Z,6.18
2023-05-22T14:42:56.894Z,5.43
2023-05-22T14:45:24.274Z,6.30
2023-05-22T14:47:51.215Z,5.93
2023-05-22T14:50:20.383Z,5.82
2023-05-22T14:52:51.248Z,6.10
2023-05-22T14:55:18.372Z,6.10
2023-05-22T14:57:45.478Z,6.28
2023-05-22T15:00:13.210Z,6.70
2023-05-22T15:02:40.860Z,6.28
2023-05-22T15:05:08.959Z,6.60
2023-05-22T15:07:43.922Z,5.28
2023-05-22T15:10:13.199Z,5.70
2023-05-22T15:12:40.221Z,5.90
2023-05-22T15:15:08.104Z,7.22
2023-05-22T15:17:34.974Z,6.82
2023-05-22T15:20:01.912Z,6.25
2023-05-22T15:22:28.765Z,6.10
2023-05-22T15:25:11.531Z,6.20
2023-05-22T15:27:39.652Z,5.88
2023-05-22T15:30:09.595Z,6.55
2023-05-22T15:32:37.977Z,5.20
2023-05-22T15:35:06.699Z,5.70
2023-05-22T15:37:34.071Z,5.57
2023-05-22T15:40:01.920Z,5.25
2023-05-22T15:42:29.377Z,6.40
2023-05-22T15:44:57.853Z,6.38
2023-05-22T15:47:24.945Z,5.93
2023-05-22T15:49:52.718Z,5.65
2023-05-22T15:52:21.021Z,5.68
2023-05-22T15:54:47.873Z,5.35
2023-05-22T15:57:14.744Z,4.90
2023-05-22T15:59:41.685Z,5.18
2023-05-22T16:02:08.604Z,4.32
2023-05-22T16:04:35.494Z,4.95
2023-05-22T16:07:02.386Z,4.80
2023-05-22T16:09:31.404Z,4.85
2023-05-22T16:11:59.436Z,4.50
2023-05-22T16:14:26.251Z,5.07
2023-05-22T16:16:53.096Z,4.50
2023-05-22T16:19:19.964Z,4.70
2023-05-22T16:21:46.887Z,4.60
2023-05-22T16:24:13.891Z,4.53
2023-05-22T16:26:40.926Z,4.40
2023-05-22T16:29:08.899Z,4.53
2023-05-22T16:31:35.973Z,4.40
2023-05-22T16:34:04.029Z,5.68
2023-05-22T16:36:31.400Z,5.40
2023-05-22T16:38:58.600Z,5.38
2023-05-22T16:41:26.818Z,5.30
2023-05-22T16:43:53.978Z,5.90
2023-05-22T16:46:21.162Z,5.85
2023-05-22T16:48:48.451Z,6.38
2023-05-22T16:51:15.337Z,6.68
2023-05-22T16:53:42.163Z,7.80
2023-05-22T16:56:09.094Z,6.82
2023-05-22T16:58:36.051Z,5.93
2023-05-22T17:01:03.099Z,6.07
2023-05-22T17:03:30.099Z,5.97
2023-05-22T17:05:57.189Z,5.40
2023-05-22T17:08:24.273Z,5.15
2023-05-22T17:10:51.355Z,5.50
2023-05-22T17:13:20.938Z,6.22
2023-05-22T17:15:48.966Z,6.55
2023-05-22T17:18:19.686Z,8.55
2023-05-22T17:20:51.720Z,7.80
2023-05-22T17:23:18.519Z,9.52
2023-05-22T17:25:46.755Z,8.93
2023-05-22T17:28:14.956Z,9.15
2023-05-22T17:30:44.129Z,9.10
2023-05-22T17:33:12.079Z,9.40
2023-05-22T17:35:39.006Z,9.15
2023-05-22T17:38:08.376Z,9.25
2023-05-22T17:40:44.857Z,9.50
2023-05-22T17:43:13.845Z,9.00
2023-05-22T17:45:41.714Z,9.77
2023-05-22T17:48:08.818Z,9.30
2023-05-22T17:50:35.655Z,9.43
2023-05-22T17:53:02.908Z,9.25
2023-05-22T17:55:29.780Z,9.93
2023-05-22T17:57:56.789Z,8.40
2023-05-22T18:00:23.850Z,8.70
2023-05-22T18:02:50.954Z,8.32
2023-05-22T18:05:17.962Z,8.13
2023-05-22T18:07:44.871Z,8.35
2023-05-22T18:10:11.842Z,7.30
2023-05-22T18:12:38.804Z,7.90
2023-05-22T18:15:09.451Z,7.00
2023-05-22T18:17:36.405Z,7.07
2023-05-22T18:20:06.260Z,7.40
2023-05-22T18:22:33.113Z,7.85
2023-05-22T18:24:59.926Z,7.63
2023-05-22T18:27:27.706Z,7.22
2023-05-22T18:29:55.458Z,7.00
2023-05-22T18:32:22.815Z,7.40
2023-05-22T18:34:49.811Z,7.22
2023-05-22T18:37:16.704Z,7.15
2023-05-22T18:39:43.969Z,7.53
2023-05-22T18:42:10.958Z,6.88
2023-05-22T18:44:37.934Z,7.60
2023-05-22T18:47:05.553Z,7.55
2023-05-22T18:49:32.883Z,7.88
2023-05-22T18:51:59.939Z,8.88
2023-05-22T18:54:27.488Z,7.45
2023-05-22T18:56:54.313Z,7.53
2023-05-22T18:59:21.245Z,7.82
2023-05-22T19:01:48.099Z,7.60
2023-05-22T19:04:15.070Z,7.18
2023-05-22T19:06:42.082Z,7.40
2023-05-22T19:09:12.097Z,7.63
2023-05-22T19:11:39.239Z,7.10
2023-05-22T19:14:06.085Z,6.78
2023-05-22T19:16:32.924Z,7.18
2023-05-22T19:18:59.899Z,6.97
2023-05-22T19:21:26.826Z,7.07
2023-05-22T19:23:53.664Z,7.57
2023-05-22T19:26:21.035Z,6.97
2023-05-22T19:28:47.872Z,6.90
2023-05-22T19:31:14.731Z,7.20
2023-05-22T19:33:41.573Z,6.47
2023-05-22T19:36:08.448Z,6.97
2023-05-22T19:38:35.387Z,6.90
2023-05-22T19:41:02.970Z,7.40
2023-05-22T19:43:31.348Z,7.05
2023-05-22T19:45:58.489Z,6.82
2023-05-22T19:48:25.723Z,7.10
2023-05-22T19:50:52.950Z,7.47
2023-05-22T19:53:19.764Z,7.55
2023-05-22T19:55:47.513Z,7.50
2023-05-22T19:58:14.415Z,6.72
2023-05-22T20:00:41.699Z,7.20
2023-05-22T20:03:09.358Z,7.10
2023-05-22T20:05:36.366Z,7.30
2023-05-22T20:08:03.314Z,6.95
2023-05-22T20:10:31.249Z,6.78
2023-05-22T20:12:59.328Z,6.57
2023-05-22T20:15:26.183Z,6.45
2023-05-22T20:17:54.410Z,6.57
2023-05-22T20:20:24.074Z,6.13
2023-05-22T20:22:52.708Z,7.40
2023-05-22T20:25:21.228Z,6.78
2023-05-22T20:27:48.108Z,6.85
2023-05-22T20:30:15.290Z,7.13
2023-05-22T20:32:46.640Z,6.30
2023-05-22T20:35:14.002Z,6.25
2023-05-22T20:37:41.607Z,6.60
2023-05-22T20:40:09.501Z,7.30
2023-05-22T20:42:37.803Z,6.32
2023-05-22T20:45:06.211Z,6.20
2023-05-22T20:47:36.134Z,5.90
2023-05-22T20:50:03.261Z,6.57
2023-05-22T20:52:30.454Z,6.07
2023-05-22T20:54:57.954Z,5.93
2023-05-22T20:57:25.657Z,6.25
2023-05-22T20:59:54.082Z,6.00
2023-05-22T21:02:21.156Z,5.85
2023-05-22T21:04:47.997Z,6.20
2023-05-22T21:07:14.825Z,5.95
2023-05-22T21:09:42.181Z,6.05
2023-05-22T21:12:09.248Z,7.35
2023-05-22T21:14:36.285Z,8.05
2023-05-22T21:17:03.769Z,7.75
2023-05-22T21:19:30.760Z,7.57
2023-05-22T21:21:57.771Z,8.18
2023-05-22T21:24:24.863Z,7.68
2023-05-22T21:26:51.704Z,7.88
2023-05-22T21:29:18.571Z,8.57
2023-05-22T21:31:45.728Z,8.45
2023-05-22T21:34:12.814Z,8.27
2023-05-22T21:36:39.640Z,8.50
2023-05-22T21:39:06.506Z,8.88
2023-05-22T21:41:33.479Z,9.55
2023-05-22T21:44:00.626Z,10.30
2023-05-22T21:46:27.880Z,10.07
2023-05-22T21:48:54.792Z,9.40
2023-05-22T21:51:21.688Z,8.20
2023-05-22T21:53:48.521Z,8.90
2023-05-22T21:56:15.376Z,8.52
2023-05-22T21:58:42.243Z,9.15
2023-05-22T22:01:10.069Z,10.23
2023-05-22T22:03:38.859Z,10.23
2023-05-22T22:06:06.290Z,11.38
2023-05-22T22:08:33.202Z,10.25
2023-05-22T22:11:00.121Z,9.55
2023-05-22T22:13:26.938Z,9.85
2023-05-22T22:15:53.765Z,9.35
2023-05-22T22:18:20.734Z,10.00
2023-05-22T22:20:50.176Z,8.95
2023-05-22T22:23:17.165Z,9.07
2023-05-22T22:25:44.007Z,10.00
2023-05-22T22:28:11.364Z,10.43
2023-05-22T22:30:38.401Z,11.35
2023-05-22T22:33:05.435Z,11.82
2023-05-22T22:35:32.272Z,12.23
2023-05-22T22:37:59.135Z,12.02
2023-05-22T22:40:26.938Z,13.02
2023-05-22T22:42:54.001Z,13.40
2023-05-22T22:45:21.084Z,13.15
2023-05-22T22:47:48.239Z,14.13
2023-05-22T22:50:15.197Z,13.02
2023-05-22T22:52:45.524Z,12.80
2023-05-22T22:55:13.500Z,13.82
2023-05-22T22:57:46.984Z,14.70
2023-05-22T23:00:14.440Z,14.57
2023-05-22T23:02:41.343Z,15.27
2023-05-22T23:05:08.946Z,17.65
2023-05-22T23:07:36.156Z,18.35
2023-05-22T23:10:03.611Z,19.27
2023-05-22T23:12:35.046Z,19.73
2023-05-22T23:15:02.945Z,19.33
2023-05-22T23:17:30.172Z,19.58
2023-05-22T23:19:57.321Z,19.02
2023-05-22T23:22:24.377Z,19.77
2023-05-22T23:24:51.273Z,19.42
2023-05-22T23:27:18.188Z,20.45
2023-05-22T23:29:45.060Z,21.88
2023-05-22T23:32:14.592Z,23.63
2023-05-22T23:34:42.287Z,28.15
2023-05-22T23:37:09.900Z,32.83
2023-05-22T23:39:36.740Z,32.85
2023-05-22T23:42:03.909Z,33.08
2023-05-22T23:44:31.474Z,31.95
2023-05-22T23:46:59.413Z,31.42
2023-05-22T23:49:26.791Z,29.50
2023-05-22T23:51:53.817Z,26.90
2023-05-22T23:54:20.775Z,29.30
2023-05-22T23:56:47.745Z,27.30
2023-05-22T23:59:15.636Z,26.15
